Список аэропортов
Фактическая погода:

09 декабря, 17:50
Температура: +16°C (+15.4*)
Ветер: западный 4 м/с
Давление: *755 мм
неб. 750 м
Время (МСК)Темп. СВетерВлажностьДавлениеОблачностьОсадки
15:00+16ЮЗ, 4 м/с84%1010 гПаоблачнодождь
16:00+15З, 4 м/с88%1010 гПаоблачнодождь
17:00+16СЗ, 8 м/с66%1010 гПамалооблачно
18:00+15СЗ, 7 м/с66%1009 гПамалооблачно
19:00+15СЗ, 5 м/с67%1010 гПамалооблачно
20:00+14СЗ, 5 м/с69%1010 гПас прояснениями
21:00+13СЗ, 4 м/с73%1010 гПамалооблачно
22:00+12СЗ, 3 м/с81%1010 гПамалооблачносл. дождь
23:00+12З, 3 м/с85%1010 гПас прояснениямидождь
10 декабря
00:00+11З, 2 м/с88%1010 гПас прояснениями
01:00+11З, 2 м/с90%1009 гПамалооблачно
02:00+10З, 2 м/с91%1009 гПамалооблачно
03:00+9С, 2 м/с95%1009 гПамалооблачно
04:00+8СВ, 2 м/с98%1009 гПас прояснениями
05:00+8СВ, 3 м/с98%1008 гПамалооблачно
06:00+7СВ, 3 м/с95%1008 гПамалооблачно
07:00+7СВ, 3 м/с96%1008 гПамалооблачно
08:00+6СВ, 3 м/с96%1009 гПамалооблачно
09:00+6СВ, 3 м/с96%1009 гПамалооблачно
10:00+6С, 3 м/с94%1010 гПаясно
11:00+8С, 5 м/с85%1010 гПаясно
12:00+10С, 6 м/с69%1010 гПаясно
13:00+12С, 7 м/с62%1010 гПаясно
14:00+13С, 7 м/с61%1010 гПаясно
15:00+13С, 8 м/с60%1011 гПаясно
16:00+14С, 8 м/с54%1011 гПаясно
17:00+14С, 8 м/с52%1011 гПаясно
18:00+13С, 8 м/с52%1012 гПаясно
19:00+12С, 8 м/с55%1012 гПаясно
20:00+12С, 8 м/с54%1013 гПаясно
21:00+11С, 9 м/с54%1013 гПаясно
22:00+11С, 9 м/с54%1013 гПаясно
23:00+11С, 9 м/с55%1013 гПаясно
11 декабря
00:00+10С, 9 м/с55%1014 гПаясно
01:00+10С, 10 м/с56%1014 гПаясно
02:00+10С, 10 м/с57%1015 гПаясно
03:00+10С, 10 м/с57%1015 гПаясно
04:00+9С, 9 м/с57%1015 гПаясно
05:00+9С, 9 м/с57%1015 гПаясно
06:00+9С, 8 м/с57%1014 гПаясно
07:00+8С, 8 м/с57%1014 гПаясно
08:00+8С, 8 м/с58%1014 гПаясно
09:00+8С, 7 м/с60%1014 гПаясно
10:00+8С, 7 м/с61%1014 гПаясно
11:00+8С, 8 м/с56%1014 гПаясно
12:00+9С, 7 м/с55%1014 гПаясно
13:00+10С, 7 м/с52%1014 гПаясно
14:00+11С, 6 м/с50%1013 гПаясно
15:00+11С, 6 м/с48%1013 гПаясно